Latest Weather Observations for Jacup

IDW60801

Issued at 5:14 pm WST Thursday 2 April 2015 (issued every 30 minutes, with the page automatically refreshed every 10 minutes)

About weather observations | Map of weather stations | Latest weather observations for WA | Other Formats
Station Details ID: 010905 Name: JACUP Lat: -33.89 Lon: 119.11 Height: 305.0 m
Data from the previous 72 hours. | See also: Recent months at Jacup
Date/Time
WST
Temp
°C
App
Temp
°C
Dew
Point
Rel
Hum
%
Delta-T
°C
Wind Press
QNH
hPa
Press
MSL
hPa
Rain
since 9 am
mm
Dir
 
Spd
km/h
Gust
km/h
Spd
kts
Gust
kts
02/05:00pm 18.5 14.2 10.6 60 4.3 E 24 33 13 18 1020.4 1019.8 0.0
02/04:30pm 19.4 14.8 10.9 58 4.7 ESE 26 35 14 19 1020.6 1020.0 0.0
02/04:00pm 19.7 15.1 10.9 57 4.9 ESE 26 35 14 19 1020.4 1019.8 0.0
02/03:30pm 20.1 16.0 10.2 53 5.4 ESE 22 32 12 17 1020.5 1019.9 0.0
02/03:00pm 20.7 17.5 9.9 50 5.9 ESE 17 26 9 14 1020.7 1020.1 0.0
02/02:30pm 21.0 17.7 8.0 43 6.8 ENE 15 22 8 12 1021.0 1020.3 0.0
02/02:00pm 20.4 16.8 8.4 46 6.3 ENE 17 24 9 13 1021.3 1020.6 0.0
02/01:30pm 20.4 17.3 8.7 47 6.2 ENE 15 24 8 13 1021.6 1020.9 0.0
02/01:00pm 20.6 17.4 8.3 45 6.5 E 15 22 8 12 1022.0 1021.3 0.0
02/12:30pm 19.7 16.2 7.4 45 6.3 ENE 15 24 8 13 1022.6 1022.0 0.0
02/12:00pm 19.3 15.7 8.3 49 5.8 ENE 17 26 9 14 1023.1 1022.5 0.0
02/11:30am 18.8 15.4 7.6 48 5.8 NE 15 28 8 15 1023.7 1023.1 0.0
02/11:00am 18.3 14.7 8.3 52 5.2 NE 17 24 9 13 1024.1 1023.5 0.0
02/10:30am 18.0 13.9 8.0 52 5.2 ENE 19 26 10 14 1024.5 1023.8 0.0
02/10:00am 17.5 14.3 9.9 61 4.1 NNE 17 24 9 13 1024.8 1024.1 0.0
02/09:30am 16.4 13.3 10.3 67 3.3 NNE 17 26 9 14 1025.3 1024.7 0.0
02/09:00am 16.5 13.9 10.8 69 3.1 NE 15 24 8 13 1025.6 1025.0 0.2
02/08:30am 15.3 12.8 11.1 76 2.3 NNE 15 20 8 11 1025.9 1025.3 0.2
02/08:00am 13.6 11.5 11.1 85 1.3 NE 13 19 7 10 1026.0 1025.4 0.2
02/07:30am 12.0 11.3 11.5 97 0.3 E 6 11 3 6 1025.8 1025.2 0.2
02/07:00am 9.5 9.3 8.9 96 0.3 CALM 0 0 0 0 1025.8 1025.2 0.2
02/06:30am 8.4 6.7 7.6 95 0.4 E 6 7 3 4 1025.6 1025.0 0.2
02/06:00am 9.5 8.9 8.9 96 0.3 ESE 2 9 1 5 1025.4 1024.8 0.0
02/05:30am 9.3 9.0 8.5 95 0.4 CALM 0 0 0 0 1025.4 1024.8 0.0
02/05:00am 9.3 7.6 8.5 95 0.4 ESE 7 7 4 4 1025.4 1024.8 0.0
02/04:30am 9.8 8.3 9.0 95 0.4 ESE 7 9 4 5 1025.3 1024.7 0.0
02/04:00am 8.9 7.1 7.8 93 0.5 ESE 7 9 4 5 1025.3 1024.7 0.0
02/03:30am 9.7 8.1 8.6 93 0.5 ESE 7 9 4 5 1025.3 1024.7 0.0
02/03:00am 10.2 8.7 9.1 93 0.6 E 7 9 4 5 1025.5 1024.9 0.0
02/02:30am 10.9 9.1 9.5 91 0.7 ENE 9 13 5 7 1025.7 1025.1 0.0
02/02:00am 12.1 10.3 10.7 91 0.7 E 11 15 6 8 1025.9 1025.3 0.0
02/01:30am 12.2 10.4 10.8 91 0.7 E 11 15 6 8 1026.2 1025.6 0.0
02/01:00am 12.7 11.4 11.1 90 0.8 E 9 13 5 7 1026.2 1025.6 0.0
02/12:30am 12.9 11.2 11.1 89 1.0 ESE 11 13 6 7 1026.2 1025.6 0.0
02/12:00am 12.9 11.2 11.1 89 1.0 E 11 15 6 8 1026.2 1025.6 0.0
 
Date/Time
WST
Temp
°C
App
Temp
°C
Dew
Point
Rel
Hum
%
Delta-T
°C
Wind Press
QNH
hPa
Press
MSL
hPa
Rain
since 9 am
mm
Dir
 
Spd
km/h
Gust
km/h
Spd
kts
Gust
kts
01/11:30pm 12.5 11.1 10.9 90 0.8 E 9 13 5 7 1026.4 1025.8 0.0
01/11:00pm 12.9 10.4 11.0 88 1.0 E 15 20 8 11 1026.8 1026.2 0.0
01/10:30pm 13.2 11.2 10.2 82 1.6 E 11 17 6 9 1026.9 1026.3 0.0
01/10:00pm 13.2 11.2 10.2 82 1.6 ESE 11 13 6 7 1027.1 1026.5 0.0
01/09:30pm 13.2 11.1 9.8 80 1.8 ESE 11 15 6 8 1027.1 1026.5 0.0
01/09:00pm 13.5 11.0 9.6 77 2.0 ESE 13 17 7 9 1027.1 1026.5 0.0
01/08:30pm 14.1 11.2 9.7 75 2.3 ESE 15 22 8 12 1027.1 1026.5 0.0
01/08:00pm 13.9 10.8 8.9 72 2.6 ESE 15 22 8 12 1027.0 1026.4 0.0
01/07:30pm 14.3 10.8 8.9 70 2.8 ESE 17 22 9 12 1026.9 1026.3 0.0
01/07:00pm 14.3 10.4 8.5 68 2.9 ESE 19 24 10 13 1026.7 1026.1 0.0
01/06:30pm 14.4 10.4 8.4 67 3.1 ESE 19 26 10 14 1026.5 1025.9 0.0
01/06:00pm 14.6 10.4 8.3 66 3.2 ESE 20 28 11 15 1026.3 1025.7 0.0
01/05:30pm 14.9 10.3 8.2 64 3.4 ESE 22 32 12 17 1026.2 1025.6 0.0
01/05:00pm 15.2 10.2 8.2 63 3.6 ESE 24 32 13 17 1026.0 1025.4 0.0
01/04:30pm 15.5 11.0 8.5 63 3.6 ESE 22 32 12 17 1026.0 1025.4 0.0
01/04:00pm 15.9 11.4 8.6 62 3.8 ESE 22 30 12 16 1025.8 1025.2 0.0
01/03:30pm 15.6 12.5 10.4 71 2.8 ESE 17 24 9 13 1025.9 1025.3 0.0
01/03:00pm 14.7 10.9 11.3 80 1.8 SE 22 32 12 17 1026.0 1025.4 0.0
01/02:30pm 16.9 11.8 10.5 66 3.5 ESE 28 39 15 21 1025.8 1025.2 0.0
01/02:00pm 16.5 11.7 10.4 67 3.3 ESE 26 33 14 18 1025.8 1025.2 0.0
01/01:30pm 16.9 12.2 10.5 66 3.5 SE 26 35 14 19 1025.8 1025.2 0.0
01/01:00pm 15.8 11.0 10.3 70 2.9 SE 26 35 14 19 1026.1 1025.5 0.0
01/12:30pm 18.0 14.1 9.6 58 4.5 ESE 20 28 11 15 1026.0 1025.4 0.0
01/12:00pm 16.5 12.0 10.1 66 3.4 ESE 24 32 13 17 1026.4 1025.8 0.0
01/11:30am 15.8 11.5 10.6 71 2.8 SE 24 33 13 18 1026.7 1026.1 0.0
01/11:00am 17.1 13.0 8.8 58 4.3 SE 20 26 11 14 1026.6 1026.0 0.0
01/10:30am 17.7 14.0 8.0 53 5.0 SE 17 26 9 14 1026.7 1026.1 0.0
01/10:00am 16.4 12.7 7.9 57 4.3 SE 17 22 9 12 1026.8 1026.2 0.0
01/09:30am 17.1 13.0 7.7 54 4.8 SSE 19 26 10 14 1026.7 1026.1 0.0
01/09:00am 16.8 13.5 8.2 57 4.4 SSE 15 24 8 13 1026.6 1026.0 1.2
01/08:30am 15.7 12.2 7.2 57 4.3 SE 15 20 8 11 1026.4 1025.8 1.2
01/08:00am 15.1 11.8 8.1 63 3.5 SE 15 20 8 11 1026.2 1025.6 1.2
01/07:30am 14.0 11.1 8.2 68 2.9 SE 13 19 7 10 1025.9 1025.0 1.2
01/07:00am 12.1 10.1 8.8 80 1.7 SSE 9 13 5 7 1025.6 1024.7 1.2
01/06:30am 12.3 10.4 9.1 81 1.6 SE 9 13 5 7 1025.3 1024.4 1.2
01/06:00am 12.4 10.2 9.4 82 1.5 SE 11 15 6 8 1025.1 1024.2 1.2
01/05:30am 12.3 10.3 10.2 87 1.1 SSE 11 15 6 8 1024.8 1023.8 1.2
01/05:00am 12.3 10.3 10.2 87 1.1 SSE 11 13 6 7 1024.5 1023.5 1.2
01/04:30am 12.6 11.2 10.8 89 1.0 SSE 9 13 5 7 1024.1 1023.2 1.2
01/04:00am 12.8 11.2 11.4 91 0.7 SSE 11 15 6 8 1023.9 1023.0 1.2
01/03:30am 12.9 11.0 11.8 93 0.6 SSE 13 19 7 10 1023.5 1022.6 1.2
01/03:00am 12.9 11.4 12.0 94 0.5 S 11 17 6 9 1023.4 1022.5 1.2
01/02:30am 13.0 10.7 11.9 93 0.6 SSE 15 24 8 13 1023.2 1022.3 1.2
01/02:00am 13.0 11.6 12.1 94 0.5 S 11 17 6 9 1023.0 1022.1 1.2
01/01:30am 13.0 11.2 12.2 95 0.4 S 13 19 7 10 1022.8 1021.9 1.2
01/01:00am 13.0 10.5 12.4 96 0.3 SSE 17 24 9 13 1022.7 1021.8 1.2
01/12:30am 13.3 10.9 12.7 96 0.3 SSE 17 26 9 14 1022.6 1021.7 1.2
01/12:00am 13.7 12.5 12.9 95 0.4 S 11 17 6 9 1022.4 1021.5 0.8
 
Date/Time
WST
Temp
°C
App
Temp
°C
Dew
Point
Rel
Hum
%
Delta-T
°C
Wind Press
QNH
hPa
Press
MSL
hPa
Rain
since 9 am
mm
Dir
 
Spd
km/h
Gust
km/h
Spd
kts
Gust
kts
31/11:30pm 13.8 12.3 13.0 95 0.4 SSW 13 20 7 11 1022.3 1021.4 0.8
31/11:00pm 13.8 12.7 13.2 96 0.3 SSW 11 19 6 10 1022.3 1021.4 0.8
31/10:30pm 14.1 12.7 13.5 96 0.3 S 13 20 7 11 1022.2 1021.3 0.8
31/10:00pm 13.9 11.7 13.3 96 0.3 SSW 17 24 9 13 1022.2 1021.3 0.8
31/09:30pm 13.8 12.0 13.2 96 0.3 S 15 22 8 12 1022.0 1021.0 0.6
31/09:00pm 14.2 12.1 13.6 96 0.3 S 17 30 9 16 1021.7 1020.7 0.4
31/08:30pm 14.4 12.4 13.8 96 0.3 S 17 33 9 18 1021.4 1020.4 0.2
31/08:00pm 14.5 12.1 13.7 95 0.5 SSW 19 30 10 16 1021.0 1020.0 0.2
31/07:30pm 15.1 12.6 14.1 94 0.6 SSW 20 32 11 17 1020.2 1019.3 0.0
31/07:00pm 16.4 13.5 14.1 86 1.3 S 22 35 12 19 1019.6 1018.7 0.0
31/06:30pm 17.1 14.4 14.6 85 1.5 S 22 35 12 19 1018.9 1017.9 0.0
31/06:00pm 18.1 15.7 14.4 79 2.2 S 20 30 11 16 1018.2 1017.2 0.0
31/05:30pm 19.0 15.8 13.2 69 3.3 S 22 33 12 18 1017.7 1016.7 0.0
31/05:00pm 20.4 18.6 13.4 64 4.1 SSE 15 19 8 10 1017.0 1016.1 0.0
31/04:30pm 21.1 19.3 13.3 61 4.5 SSE 15 20 8 11 1016.8 1015.9 0.0
31/04:00pm 22.5 20.3 13.3 56 5.4 S 17 28 9 15 1016.5 1015.6 0.0
31/03:30pm 21.7 18.9 13.1 58 5.0 SSE 20 32 11 17 1016.2 1015.2 0.0
31/03:00pm 23.0 22.2 12.9 53 5.9 SSW 9 15 5 8 1015.9 1014.9 0.0
31/02:30pm 22.7 21.1 12.9 54 5.7 S 13 20 7 11 1016.0 1015.0 0.0
31/02:00pm 23.1 21.5 13.8 55 5.5 SW 15 30 8 16 1015.9 1014.9 0.0
31/01:30pm 22.8 21.9 13.6 56 5.4 SSW 11 17 6 9 1015.9 1014.9 0.0
31/01:00pm 22.8 21.9 13.6 56 5.4 SW 11 19 6 10 1016.1 1015.1 0.0
31/12:30pm 23.5 24.0 15.0 59 5.1 WSW 6 17 3 9 1016.3 1015.3 0.0
31/12:00pm 20.8 20.7 14.9 69 3.5 SW 9 17 5 9 1016.7 1015.8 0.0
31/11:30am 21.1 20.9 14.7 67 3.8 WSW 9 15 5 8 1017.0 1016.1 0.0
31/11:00am 19.6 20.7 14.6 73 2.9 S 2 9 1 5 1017.1 1016.2 0.0
31/10:30am 18.9 19.3 15.4 80 2.1 SSW 7 11 4 6 1017.3 1016.4 0.0
31/10:00am 18.0 18.4 15.3 84 1.6 SSW 7 11 4 6 1017.6 1016.6 0.0
31/09:30am 17.3 17.5 15.8 91 0.9 S 9 13 5 7 1017.6 1016.6 0.0
31/09:00am 16.9 16.6 15.4 91 0.9 S 11 19 6 10 1017.3 1016.4 2.8
31/08:30am 17.1 17.4 16.0 93 0.7 SSW 9 15 5 8 1017.6 1016.6 2.8
31/08:00am 16.6 16.7 15.6 94 0.6 S 9 13 5 7 1017.2 1016.3 2.8
31/07:30am 16.1 16.4 15.1 94 0.6 SSE 7 11 4 6 1017.0 1016.1 2.8
31/07:00am 15.9 16.2 15.1 95 0.5 S 7 11 4 6 1016.9 1016.0 2.8
31/06:30am 16.0 16.0 15.2 95 0.5 S 9 15 5 8 1016.6 1015.7 2.8
31/06:00am 16.4 17.0 15.8 96 0.4 SE 7 11 4 6 1016.5 1015.6 2.6
31/05:30am 16.5 16.8 15.9 96 0.4 S 9 15 5 8 1016.4 1015.4 2.2
31/05:00am 16.8 17.2 16.2 96 0.4 SE 9 13 5 7 1015.8 1014.8 2.0
31/04:30am 16.7 17.0 16.1 96 0.4 SE 9 13 5 7 1015.6 1014.6 1.8
31/04:00am 16.8 17.5 16.2 96 0.4 SSE 7 11 4 6 1015.9 1014.9 1.8
31/03:30am 16.7 17.0 15.9 95 0.5 E 9 11 5 6 1015.8 1014.8 1.6
31/03:00am 16.9 17.6 16.1 95 0.5 ESE 7 9 4 5 1015.8 1014.8 1.4
31/02:30am 17.0 17.9 16.0 94 0.6 ESE 6 9 3 5 1016.3 1015.3 0.8
31/02:00am 17.1 17.8 16.0 93 0.7 ESE 7 9 4 5 1016.8 1015.9 0.2
31/01:30am 17.5 19.5 16.0 91 0.9 CALM 0 0 0 0 1017.2 1016.3 0.0
31/01:00am 17.5 19.0 15.7 89 1.1 SW 2 6 1 3 1017.5 1016.5 0.0
31/12:30am 17.7 18.3 15.3 86 1.4 SW 6 7 3 4 1017.3 1016.4 0.0
31/12:00am 17.9 19.7 15.5 86 1.4 CALM 0 0 0 0 1017.3 1016.4 0.0
 
Date/Time
WST
Temp
°C
App
Temp
°C
Dew
Point
Rel
Hum
%
Delta-T
°C
Wind Press
QNH
hPa
Press
MSL
hPa
Rain
since 9 am
mm
Dir
 
Spd
km/h
Gust
km/h
Spd
kts
Gust
kts
30/11:30pm 18.1 20.0 15.7 86 1.4 CALM 0 0 0 0 1017.5 1016.5 0.0
30/11:00pm 18.1 18.9 15.9 87 1.3 S 6 11 3 6 1017.7 1016.7 0.0
30/10:30pm 18.1 17.2 15.9 87 1.3 S 15 19 8 10 1017.5 1016.5 0.0
30/10:00pm 18.2 17.7 16.0 87 1.3 S 13 22 7 12 1017.1 1016.2 0.0
30/09:30pm 18.2 17.3 15.8 86 1.4 S 15 26 8 14 1017.3 1016.4 0.0
30/09:00pm 18.3 17.1 16.1 87 1.3 S 17 28 9 15 1016.9 1016.0 0.0
30/08:30pm 18.2 16.4 16.0 87 1.3 S 20 30 11 16 1016.6 1015.7 0.0
30/08:00pm 18.2 16.6 16.0 87 1.3 S 19 28 10 15 1016.5 1015.6 0.0
30/07:30pm 18.7 15.3 15.8 83 1.7 SSW 28 39 15 21 1016.1 1015.1 0.0
30/07:00pm 19.9 16.6 14.0 69 3.4 S 24 35 13 19 1016.0 1015.0 0.0
30/06:47pm 20.8 18.0 13.3 62 4.4 S 20 33 11 18 1015.9 1014.9 0.0
30/06:30pm 25.8 23.5 7.4 31 9.9 NW 9 13 5 7 1015.3 1014.3 0.0
30/06:00pm 27.6 24.6 7.5 28 10.9 NW 13 17 7 9 1015.3 1014.3 0.0
30/05:30pm 28.6 25.6 7.8 27 11.4 NW 13 20 7 11 1015.1 1014.1 0.0

Other Formats:

Comma delimited format used in spreadsheet applications
http://www.bom.gov.au/fwo/IDW60801/IDW60801.95636.axf

JavaScript Object Notation format (JSON) in row-major order
http://www.bom.gov.au/fwo/IDW60801/IDW60801.95636.json